Terminal Aerodrome Forecast
Issued by NWS Cleveland, OH

Home | Current Version | Previous Version | Text Only | Print | Product List | Glossary Off
Versions: 1 2 3 4 5 6 7 8 9 10 11 12 13 14

000
FTUS41 KCLE 301301 AAA
TAFTOL
TAF AMD
KTOL 301301Z 3013/0112 VRB03KT P6SM SCT005 OVC040
      TEMPO 3013/3014 6SM BR BKN005
     FM301400 27004KT P6SM BKN035
     FM301700 23008KT P6SM -SHRA OVC025
      TEMPO 3017/3021 3SM -TSRA OVC015CB
     FM302300 28007KT P6SM BKN100
     FM010300 27007KT P6SM SKC
     FM010500 28007KT P6SM BKN007
     FM011000 29006KT 3SM BR OVC007=

USA.gov is the U.S. government's official web portal to all federal, state and local government web resources and services.